createdAt,value
2024-01-10T00:00:41.643Z,3.63
2024-01-10T00:03:08.722Z,4.47
2024-01-10T00:05:35.765Z,4.45
2024-01-10T00:08:02.898Z,3.75
2024-01-10T00:10:30.670Z,4.38
2024-01-10T00:12:57.699Z,4.90
2024-01-10T00:15:24.771Z,4.97
2024-01-10T00:17:51.853Z,5.68
2024-01-10T00:20:18.992Z,4.95
2024-01-10T00:22:46.684Z,5.93
2024-01-10T00:25:13.921Z,5.53
2024-01-10T00:27:40.963Z,5.57
2024-01-10T00:30:08.656Z,6.60
2024-01-10T00:32:35.854Z,5.93
2024-01-10T00:35:04.037Z,4.70
2024-01-10T00:37:31.425Z,4.95
2024-01-10T00:39:58.489Z,5.43
2024-01-10T00:42:25.565Z,5.00
2024-01-10T00:44:52.581Z,4.40
2024-01-10T00:47:19.709Z,4.90
2024-01-10T00:49:46.980Z,4.75
2024-01-10T00:52:14.164Z,5.82
2024-01-10T00:54:41.317Z,3.78
2024-01-10T00:57:08.404Z,4.50
2024-01-10T00:59:35.494Z,5.40
2024-01-10T01:02:02.655Z,4.43
2024-01-10T01:04:29.821Z,4.45
2024-01-10T01:06:56.898Z,4.03
2024-01-10T01:09:23.980Z,4.93
2024-01-10T01:11:51.147Z,4.22
2024-01-10T01:14:18.275Z,3.83
2024-01-10T01:16:45.423Z,4.25
2024-01-10T01:19:12.572Z,4.38
2024-01-10T01:21:39.854Z,4.40
2024-01-10T01:24:06.970Z,4.68
2024-01-10T01:26:33.995Z,4.28
2024-01-10T01:29:01.103Z,3.95
2024-01-10T01:31:28.156Z,4.40
2024-01-10T01:33:55.214Z,4.28
2024-01-10T01:36:22.268Z,5.10
2024-01-10T01:38:49.309Z,4.60
2024-01-10T01:41:16.970Z,4.78
2024-01-10T01:43:44.544Z,5.50
2024-01-10T01:46:11.884Z,4.40
2024-01-10T01:48:39.521Z,4.55
2024-01-10T01:51:08.430Z,5.05
2024-01-10T01:53:39.739Z,4.65
2024-01-10T01:56:08.787Z,5.27
2024-01-10T01:58:38.160Z,4.72
2024-01-10T02:01:09.035Z,4.50
2024-01-10T02:03:36.361Z,4.82
2024-01-10T02:06:06.450Z,4.20
2024-01-10T02:08:34.698Z,5.22
2024-01-10T02:11:02.997Z,4.97
2024-01-10T02:13:30.343Z,4.82
2024-01-10T02:15:57.596Z,4.40
2024-01-10T02:18:24.734Z,5.22
2024-01-10T02:20:53.704Z,4.43
2024-01-10T02:23:21.316Z,3.55
2024-01-10T02:25:48.479Z,4.22
2024-01-10T02:28:15.593Z,4.15
2024-01-10T02:30:42.727Z,4.50
2024-01-10T02:33:10.635Z,4.13
2024-01-10T02:35:37.721Z,4.82
2024-01-10T02:38:05.257Z,4.15
2024-01-10T02:40:32.339Z,4.07
2024-01-10T02:42:59.476Z,5.38
2024-01-10T02:45:26.546Z,4.20
2024-01-10T02:47:54.254Z,4.07
2024-01-10T02:50:21.549Z,3.78
2024-01-10T02:52:48.646Z,3.70
2024-01-10T02:55:15.786Z,4.07
2024-01-10T02:57:42.970Z,3.47
2024-01-10T03:00:10.840Z,4.40
2024-01-10T03:02:37.920Z,3.90
2024-01-10T03:05:05.443Z,4.35
2024-01-10T03:07:32.542Z,4.63
2024-01-10T03:09:59.640Z,4.05
2024-01-10T03:12:26.704Z,4.20
2024-01-10T03:14:54.471Z,3.90
2024-01-10T03:17:21.828Z,4.22
2024-01-10T03:19:49.053Z,4.85
2024-01-10T03:22:16.117Z,4.90
2024-01-10T03:24:43.350Z,4.00
2024-01-10T03:27:10.371Z,4.55
2024-01-10T03:29:37.434Z,3.85
2024-01-10T03:32:04.838Z,4.47
2024-01-10T03:34:31.889Z,4.00
2024-01-10T03:36:59.307Z,4.57
2024-01-10T03:39:26.456Z,4.78
2024-01-10T03:41:53.501Z,4.18
2024-01-10T03:44:20.597Z,4.10
2024-01-10T03:46:47.732Z,3.58
2024-01-10T03:49:14.901Z,5.97
2024-01-10T03:51:42.891Z,5.05
2024-01-10T03:54:10.278Z,3.90
2024-01-10T03:56:37.402Z,4.72
2024-01-10T03:59:04.579Z,4.38
2024-01-10T04:01:31.666Z,4.95
2024-01-10T04:03:59.288Z,3.90
2024-01-10T04:06:26.519Z,3.85
2024-01-10T04:08:53.605Z,5.05
2024-01-10T04:11:20.780Z,4.30
2024-01-10T04:13:47.877Z,5.15
2024-01-10T04:16:14.954Z,4.35
2024-01-10T04:18:42.232Z,5.15
2024-01-10T04:21:09.891Z,4.20
2024-01-10T04:23:37.219Z,4.10
2024-01-10T04:26:04.699Z,4.78
2024-01-10T04:28:31.841Z,4.45
2024-01-10T04:30:59.157Z,4.80
2024-01-10T04:33:26.421Z,3.80
2024-01-10T04:35:53.961Z,4.05
2024-01-10T04:38:21.653Z,4.68
2024-01-10T04:40:48.786Z,4.35
2024-01-10T04:43:15.869Z,5.35
2024-01-10T04:45:42.938Z,5.18
2024-01-10T04:48:10.494Z,4.63
2024-01-10T04:50:37.751Z,4.63
2024-01-10T04:53:05.054Z,4.82
2024-01-10T04:55:32.200Z,5.70
2024-01-10T04:58:00.699Z,4.97
2024-01-10T05:00:28.678Z,4.85
2024-01-10T05:02:56.513Z,4.88
2024-01-10T05:05:25.301Z,5.25
2024-01-10T05:07:52.747Z,4.43
2024-01-10T05:10:20.627Z,4.85
2024-01-10T05:12:47.673Z,5.35
2024-01-10T05:15:14.722Z,5.07
2024-01-10T05:17:41.813Z,5.45
2024-01-10T05:20:09.470Z,5.05
2024-01-10T05:22:36.903Z,4.63
2024-01-10T05:25:05.532Z,4.95
2024-01-10T05:27:32.857Z,5.40
2024-01-10T05:30:00.646Z,5.05
2024-01-10T05:32:27.924Z,4.38
2024-01-10T05:34:55.585Z,6.20
2024-01-10T05:37:23.185Z,5.65
2024-01-10T05:39:50.670Z,4.82
2024-01-10T05:42:17.991Z,6.25
2024-01-10T05:44:45.063Z,4.57
2024-01-10T05:47:12.163Z,5.05
2024-01-10T05:49:39.372Z,5.28
2024-01-10T05:52:06.494Z,5.30
2024-01-10T05:54:33.551Z,6.47
2024-01-10T05:57:01.976Z,5.60
2024-01-10T05:59:30.162Z,6.55
2024-01-10T06:01:59.957Z,6.07
2024-01-10T06:04:28.955Z,5.88
2024-01-10T06:06:56.103Z,5.22
2024-01-10T06:09:23.523Z,6.15
2024-01-10T06:11:50.719Z,6.57
2024-01-10T06:14:18.200Z,6.55
2024-01-10T06:16:46.209Z,6.70
2024-01-10T06:19:13.431Z,6.03
2024-01-10T06:21:40.538Z,5.70
2024-01-10T06:24:09.070Z,6.28
2024-01-10T06:26:36.219Z,5.22
2024-01-10T06:29:03.459Z,5.35
2024-01-10T06:31:30.610Z,6.63
2024-01-10T06:33:58.112Z,6.65
2024-01-10T06:36:25.327Z,5.70
2024-01-10T06:38:52.468Z,6.55
2024-01-10T06:41:25.314Z,6.57
2024-01-10T06:43:53.608Z,6.05
2024-01-10T06:46:22.055Z,6.63
2024-01-10T06:48:49.265Z,6.43
2024-01-10T06:51:17.879Z,6.80
2024-01-10T06:53:45.047Z,6.53
2024-01-10T06:56:12.300Z,6.13
2024-01-10T06:58:40.320Z,8.57
2024-01-10T07:01:14.171Z,10.50
2024-01-10T07:03:42.109Z,8.50
2024-01-10T07:06:09.352Z,8.45
2024-01-10T07:08:36.438Z,6.47
2024-01-10T07:11:03.821Z,8.55
2024-01-10T07:13:32.586Z,7.32
2024-01-10T07:16:02.897Z,6.57
2024-01-10T07:18:30.588Z,7.68
2024-01-10T07:20:58.508Z,8.18
2024-01-10T07:23:25.715Z,8.43
2024-01-10T07:25:53.311Z,7.55
2024-01-10T07:28:21.008Z,7.82
2024-01-10T07:30:49.076Z,7.72
2024-01-10T07:33:16.796Z,8.13
2024-01-10T07:35:44.930Z,7.80
2024-01-10T07:38:12.043Z,9.30
2024-01-10T07:40:39.316Z,8.48
2024-01-10T07:43:07.117Z,7.38
2024-01-10T07:45:34.666Z,6.47
2024-01-10T07:48:01.854Z,6.90
2024-01-10T07:50:29.413Z,7.63
2024-01-10T07:52:57.546Z,7.95
2024-01-10T07:55:24.689Z,8.30
2024-01-10T07:57:52.738Z,8.05
2024-01-10T08:00:21.617Z,7.38
2024-01-10T08:02:50.738Z,8.10
2024-01-10T08:05:18.100Z,8.38
2024-01-10T08:07:45.258Z,9.00
2024-01-10T08:10:12.369Z,7.40
2024-01-10T08:12:42.728Z,8.50
2024-01-10T08:15:11.545Z,7.47
2024-01-10T08:17:39.053Z,7.07
2024-01-10T08:20:11.877Z,7.63
2024-01-10T08:22:39.760Z,8.27
2024-01-10T08:25:07.231Z,7.93
2024-01-10T08:27:37.117Z,9.15
2024-01-10T08:30:06.035Z,9.80
2024-01-10T08:32:36.276Z,9.48
2024-01-10T08:35:05.958Z,9.18
2024-01-10T08:37:33.495Z,9.77
2024-01-10T08:40:01.967Z,9.80
2024-01-10T08:42:29.411Z,11.02
2024-01-10T08:44:57.069Z,11.77
2024-01-10T08:47:24.388Z,9.80
2024-01-10T08:49:52.138Z,7.93
2024-01-10T08:52:19.527Z,9.52
2024-01-10T08:54:46.572Z,9.50
2024-01-10T08:57:13.918Z,9.27
2024-01-10T08:59:44.933Z,8.57
2024-01-10T09:02:12.044Z,9.40
2024-01-10T09:04:40.345Z,8.30
2024-01-10T09:07:10.420Z,8.20
2024-01-10T09:09:37.546Z,9.23
2024-01-10T09:12:04.931Z,10.05
2024-01-10T09:14:31.996Z,9.57
2024-01-10T09:17:03.236Z,7.72
2024-01-10T09:19:31.722Z,9.55
2024-01-10T09:21:58.969Z,7.93
2024-01-10T09:24:29.967Z,9.05
2024-01-10T09:26:57.816Z,7.60
2024-01-10T09:29:29.651Z,7.90
2024-01-10T09:31:57.608Z,9.18
2024-01-10T09:34:25.049Z,8.40
2024-01-10T09:36:53.159Z,9.45
2024-01-10T09:39:20.315Z,7.90
2024-01-10T09:41:52.877Z,9.18
2024-01-10T09:44:22.640Z,8.07
2024-01-10T09:46:55.140Z,13.13
2024-01-10T09:49:23.191Z,19.15
2024-01-10T09:51:50.867Z,11.40
2024-01-10T09:54:20.660Z,9.18
2024-01-10T09:56:48.388Z,9.32
2024-01-10T09:59:16.540Z,9.80
2024-01-10T10:01:45.161Z,8.10
2024-01-10T10:04:13.573Z,12.07
2024-01-10T10:06:40.846Z,10.60
2024-01-10T10:09:11.492Z,9.35
2024-01-10T10:11:38.593Z,9.18
2024-01-10T10:14:16.340Z,9.25
2024-01-10T10:16:45.027Z,9.68
2024-01-10T10:19:19.172Z,8.45
2024-01-10T10:21:48.639Z,9.05
2024-01-10T10:24:18.598Z,9.30
2024-01-10T10:26:46.705Z,9.88
2024-01-10T10:29:18.016Z,7.65
2024-01-10T10:31:49.074Z,9.30
2024-01-10T10:34:21.995Z,9.80
2024-01-10T10:36:49.822Z,8.82
2024-01-10T10:39:17.915Z,8.95
2024-01-10T10:41:48.407Z,9.10
2024-01-10T10:44:21.896Z,8.35
2024-01-10T10:47:05.807Z,8.20
2024-01-10T10:49:48.359Z,8.48
2024-01-10T10:52:16.433Z,9.57
2024-01-10T10:54:45.640Z,9.13
2024-01-10T10:57:13.037Z,8.32
2024-01-10T10:59:42.789Z,10.50
2024-01-10T11:02:12.078Z,8.32
2024-01-10T11:04:41.396Z,9.50
2024-01-10T11:07:09.197Z,8.40
2024-01-10T11:09:38.912Z,8.13
2024-01-10T11:12:35.322Z,8.75
2024-01-10T11:15:17.440Z,10.05
2024-01-10T11:18:08.961Z,7.80
2024-01-10T11:20:45.697Z,8.32
2024-01-10T11:23:31.416Z,7.38
2024-01-10T11:26:00.135Z,7.72
2024-01-10T11:28:29.853Z,6.68
2024-01-10T11:30:57.921Z,7.70
2024-01-10T11:33:31.681Z,7.90
2024-01-10T11:36:17.484Z,6.80
2024-01-10T11:38:58.818Z,7.05
2024-01-10T11:41:34.337Z,6.97
2024-01-10T11:44:13.927Z,7.50
2024-01-10T11:46:47.715Z,6.78
2024-01-10T11:49:17.410Z,7.70
2024-01-10T11:51:54.110Z,7.63
2024-01-10T11:54:39.336Z,7.97
2024-01-10T11:57:14.434Z,7.90
2024-01-10T11:59:43.215Z,7.82
2024-01-10T12:02:11.155Z,7.50
2024-01-10T12:04:46.263Z,7.68
2024-01-10T12:07:16.699Z,7.55
2024-01-10T12:09:44.254Z,6.88
2024-01-10T12:12:14.199Z,6.55
2024-01-10T12:14:41.839Z,7.07
2024-01-10T12:17:09.434Z,7.88
2024-01-10T12:19:40.455Z,8.38
2024-01-10T12:22:08.673Z,7.80
2024-01-10T12:24:49.200Z,8.63
2024-01-10T12:27:20.987Z,6.30
2024-01-10T12:29:52.708Z,8.20
2024-01-10T12:32:23.482Z,8.52
2024-01-10T12:34:58.948Z,7.13
2024-01-10T12:37:26.065Z,7.38
2024-01-10T12:39:53.314Z,7.28
2024-01-10T12:42:21.448Z,8.63
2024-01-10T12:44:48.962Z,7.72
2024-01-10T12:47:24.903Z,8.30
2024-01-10T12:49:52.600Z,8.85
2024-01-10T12:52:23.462Z,8.05
2024-01-10T12:54:52.561Z,7.35
2024-01-10T12:57:19.577Z,8.05
2024-01-10T12:59:46.626Z,7.45
2024-01-10T13:02:13.810Z,8.35
2024-01-10T13:04:41.044Z,8.93
2024-01-10T13:07:08.135Z,8.38
2024-01-10T13:09:36.747Z,8.30
2024-01-10T13:12:05.538Z,6.82
2024-01-10T13:14:33.087Z,7.30
2024-01-10T13:17:00.937Z,7.68
2024-01-10T13:19:28.358Z,8.82
2024-01-10T13:21:56.360Z,8.32
2024-01-10T13:24:23.619Z,8.55
2024-01-10T13:26:50.765Z,8.02
2024-01-10T13:29:18.048Z,8.05
2024-01-10T13:31:45.319Z,7.65
2024-01-10T13:34:12.951Z,8.27
2024-01-10T13:36:40.500Z,7.60
2024-01-10T13:39:08.213Z,8.50
2024-01-10T13:41:35.521Z,8.13
2024-01-10T13:44:03.113Z,7.22
2024-01-10T13:46:30.364Z,7.65
2024-01-10T13:48:57.494Z,8.07
2024-01-10T13:51:24.692Z,7.43
2024-01-10T13:53:51.841Z,8.18
2024-01-10T13:56:19.021Z,7.57
2024-01-10T13:58:46.194Z,7.95
2024-01-10T14:01:13.363Z,8.80
2024-01-10T14:03:40.843Z,8.70
2024-01-10T14:06:08.226Z,8.10
2024-01-10T14:08:38.502Z,7.85
2024-01-10T14:11:05.569Z,7.65
2024-01-10T14:13:32.642Z,8.00
2024-01-10T14:15:59.776Z,7.32
2024-01-10T14:18:27.010Z,9.15
2024-01-10T14:20:54.162Z,8.70
2024-01-10T14:23:21.681Z,7.82
2024-01-10T14:25:48.979Z,8.30
2024-01-10T14:28:16.060Z,9.13
2024-01-10T14:30:43.141Z,9.13
2024-01-10T14:33:10.912Z,9.13
2024-01-10T14:35:38.372Z,8.70
2024-01-10T14:38:05.637Z,8.43
2024-01-10T14:40:32.819Z,7.70
2024-01-10T14:43:00.168Z,8.05
2024-01-10T14:45:27.243Z,8.38
2024-01-10T14:47:54.617Z,8.77
2024-01-10T14:50:22.766Z,8.85
2024-01-10T14:52:50.556Z,9.98
2024-01-10T14:55:17.640Z,8.57
2024-01-10T14:57:44.691Z,9.23
2024-01-10T15:00:12.214Z,8.70
2024-01-10T15:02:40.044Z,9.57
2024-01-10T15:05:07.827Z,8.30
2024-01-10T15:07:34.930Z,10.07
2024-01-10T15:10:04.183Z,9.77
2024-01-10T15:12:32.203Z,10.90
2024-01-10T15:15:02.516Z,9.07
2024-01-10T15:17:29.816Z,8.50
2024-01-10T15:19:56.968Z,9.57
2024-01-10T15:22:24.094Z,10.65
2024-01-10T15:24:51.188Z,10.02
2024-01-10T15:27:19.694Z,9.77
2024-01-10T15:29:53.047Z,10.05
2024-01-10T15:32:24.093Z,9.95
2024-01-10T15:34:51.746Z,9.05
2024-01-10T15:37:18.856Z,9.52
2024-01-10T15:39:47.423Z,9.20
2024-01-10T15:42:15.316Z,9.43
2024-01-10T15:44:43.998Z,9.32
2024-01-10T15:47:11.202Z,10.23
2024-01-10T15:49:38.445Z,9.68
2024-01-10T15:52:05.601Z,9.20
2024-01-10T15:54:38.494Z,10.25
2024-01-10T15:57:05.981Z,9.93
2024-01-10T15:59:33.986Z,9.45
2024-01-10T16:02:01.373Z,9.43
2024-01-10T16:04:29.458Z,9.00
2024-01-10T16:06:56.655Z,8.65
2024-01-10T16:09:24.874Z,9.63
2024-01-10T16:11:51.965Z,9.65
2024-01-10T16:14:19.159Z,11.52
2024-01-10T16:16:46.333Z,10.05
2024-01-10T16:19:13.886Z,11.35
2024-01-10T16:21:41.371Z,10.82
2024-01-10T16:24:09.271Z,10.27
2024-01-10T16:26:37.395Z,11.65
2024-01-10T16:29:07.749Z,10.93
2024-01-10T16:31:35.044Z,10.45
2024-01-10T16:34:02.243Z,11.05
2024-01-10T16:36:29.408Z,10.73
2024-01-10T16:38:56.686Z,11.23
2024-01-10T16:41:24.384Z,12.68
2024-01-10T16:43:51.538Z,11.25
2024-01-10T16:46:18.882Z,11.68
2024-01-10T16:48:50.417Z,12.50
2024-01-10T16:51:17.547Z,12.98
2024-01-10T16:53:44.559Z,11.80
2024-01-10T16:56:11.718Z,11.50
2024-01-10T16:58:38.757Z,13.43
2024-01-10T17:01:05.832Z,11.35
2024-01-10T17:03:32.995Z,12.35
2024-01-10T17:06:00.521Z,11.73
2024-01-10T17:08:27.717Z,11.68
2024-01-10T17:10:54.792Z,11.57
2024-01-10T17:13:23.432Z,15.30
2024-01-10T17:15:50.562Z,12.90
2024-01-10T17:18:20.453Z,14.00
2024-01-10T17:20:48.092Z,13.90
2024-01-10T17:23:15.474Z,13.00
2024-01-10T17:25:42.694Z,14.50
2024-01-10T17:28:09.813Z,13.05
2024-01-10T17:30:36.928Z,14.00
2024-01-10T17:33:09.593Z,15.13
2024-01-10T17:35:38.144Z,13.77
2024-01-10T17:38:07.311Z,15.10
2024-01-10T17:40:34.507Z,14.18
2024-01-10T17:43:02.781Z,14.23
2024-01-10T17:45:29.797Z,13.27
2024-01-10T17:47:56.985Z,12.73
2024-01-10T17:50:26.193Z,12.55
2024-01-10T17:52:53.612Z,13.05
2024-01-10T17:55:20.669Z,12.40
2024-01-10T17:57:47.713Z,13.80
2024-01-10T18:00:15.436Z,13.65
2024-01-10T18:02:42.623Z,12.35
2024-01-10T18:05:09.878Z,13.07
2024-01-10T18:07:37.613Z,13.25
2024-01-10T18:10:05.193Z,13.35
2024-01-10T18:12:32.338Z,12.43
2024-01-10T18:14:59.421Z,12.90
2024-01-10T18:17:26.563Z,13.95
2024-01-10T18:19:53.786Z,17.17
2024-01-10T18:22:20.829Z,15.50
2024-01-10T18:24:47.916Z,15.77
2024-01-10T18:27:15.078Z,15.35
2024-01-10T18:29:42.123Z,14.57
2024-01-10T18:32:09.244Z,18.08
2024-01-10T18:34:36.338Z,15.65
2024-01-10T18:37:03.585Z,13.80
2024-01-10T18:39:30.749Z,13.63
2024-01-10T18:41:58.151Z,14.05
2024-01-10T18:44:25.995Z,13.95
2024-01-10T18:46:53.204Z,13.65
2024-01-10T18:49:20.420Z,14.32
2024-01-10T18:51:47.650Z,14.45
2024-01-10T18:54:14.694Z,15.88
2024-01-10T18:56:41.865Z,14.98
2024-01-10T18:59:08.980Z,15.90
2024-01-10T19:01:36.152Z,15.80
2024-01-10T19:04:03.369Z,16.95
2024-01-10T19:06:30.818Z,16.48
2024-01-10T19:08:58.091Z,16.30
2024-01-10T19:11:25.677Z,16.23
2024-01-10T19:13:52.893Z,13.77
2024-01-10T19:16:20.107Z,16.08
2024-01-10T19:18:47.284Z,18.15
2024-01-10T19:21:15.308Z,15.38
2024-01-10T19:23:45.892Z,15.80
2024-01-10T19:26:26.129Z,14.82
2024-01-10T19:28:53.542Z,16.73
2024-01-10T19:31:21.041Z,16.08
2024-01-10T19:33:49.355Z,15.73
2024-01-10T19:36:16.674Z,16.65
2024-01-10T19:38:46.141Z,14.60
2024-01-10T19:41:24.046Z,14.45
2024-01-10T19:43:52.057Z,15.20
2024-01-10T19:46:19.823Z,17.10
2024-01-10T19:48:47.977Z,18.35
2024-01-10T19:51:15.547Z,16.90
2024-01-10T19:53:49.066Z,17.73
2024-01-10T19:56:17.683Z,16.20
2024-01-10T19:58:46.153Z,17.35
2024-01-10T20:01:13.758Z,16.73
2024-01-10T20:03:41.037Z,17.23
2024-01-10T20:06:09.075Z,15.73
2024-01-10T20:08:36.400Z,16.75
2024-01-10T20:11:03.730Z,16.67
2024-01-10T20:13:30.841Z,16.75
2024-01-10T20:15:58.086Z,18.30
2024-01-10T20:18:25.362Z,18.30
2024-01-10T20:20:52.479Z,18.40
2024-01-10T20:23:20.729Z,18.70
2024-01-10T20:25:48.933Z,19.67
2024-01-10T20:28:16.693Z,18.75
2024-01-10T20:30:43.832Z,18.23
2024-01-10T20:33:11.022Z,18.45
2024-01-10T20:35:38.523Z,18.77
2024-01-10T20:38:05.647Z,18.65
2024-01-10T20:40:33.803Z,18.58
2024-01-10T20:43:01.533Z,17.77
2024-01-10T20:45:28.712Z,16.45
2024-01-10T20:47:56.101Z,18.20
2024-01-10T20:50:23.261Z,16.42
2024-01-10T20:52:51.121Z,18.92
2024-01-10T20:55:18.188Z,18.35
2024-01-10T20:57:46.749Z,18.73
2024-01-10T21:00:14.398Z,17.95
2024-01-10T21:02:41.709Z,18.05
2024-01-10T21:05:09.442Z,16.73
2024-01-10T21:07:37.897Z,16.83
2024-01-10T21:10:05.342Z,15.55
2024-01-10T21:12:32.406Z,16.40
2024-01-10T21:14:59.704Z,16.45
2024-01-10T21:17:28.039Z,19.17
2024-01-10T21:19:56.470Z,17.75
2024-01-10T21:22:23.761Z,16.17
2024-01-10T21:24:51.925Z,18.13
2024-01-10T21:27:20.010Z,16.85
2024-01-10T21:29:47.130Z,17.40
2024-01-10T21:32:16.310Z,17.30
2024-01-10T21:34:45.102Z,15.70
2024-01-10T21:37:13.481Z,17.27
2024-01-10T21:39:40.595Z,17.52
2024-01-10T21:42:08.622Z,15.65
2024-01-10T21:44:35.868Z,16.25
2024-01-10T21:47:06.700Z,15.95
2024-01-10T21:49:35.287Z,15.53
2024-01-10T21:52:02.503Z,15.02
2024-01-10T21:54:29.708Z,14.85
2024-01-10T21:56:56.861Z,14.88
2024-01-10T21:59:23.972Z,18.60
2024-01-10T22:01:51.467Z,14.52
2024-01-10T22:04:18.645Z,16.90
2024-01-10T22:06:46.248Z,14.75
2024-01-10T22:09:13.420Z,16.90
2024-01-10T22:11:40.631Z,17.60
2024-01-10T22:14:07.737Z,16.38
2024-01-10T22:16:35.509Z,15.10
2024-01-10T22:19:02.626Z,16.77
2024-01-10T22:21:29.737Z,16.50
2024-01-10T22:23:56.829Z,18.10
2024-01-10T22:26:23.884Z,17.23
2024-01-10T22:28:51.642Z,18.15
2024-01-10T22:31:18.798Z,16.13
2024-01-10T22:33:46.178Z,16.75
2024-01-10T22:36:14.783Z,16.25
2024-01-10T22:38:41.805Z,16.33
2024-01-10T22:41:08.932Z,17.05
2024-01-10T22:43:35.986Z,20.10
2024-01-10T22:46:03.163Z,18.35
2024-01-10T22:48:31.288Z,17.60
2024-01-10T22:51:00.308Z,17.05
2024-01-10T22:53:27.765Z,15.80
2024-01-10T22:55:54.890Z,15.52
2024-01-10T22:58:23.416Z,17.35
2024-01-10T23:00:52.683Z,17.40
2024-01-10T23:03:20.530Z,18.00
2024-01-10T23:05:48.373Z,17.02
2024-01-10T23:08:15.532Z,16.98
2024-01-10T23:10:42.679Z,16.92
2024-01-10T23:13:09.854Z,17.58
2024-01-10T23:15:36.938Z,16.70
2024-01-10T23:18:04.405Z,18.17
2024-01-10T23:20:31.965Z,17.73
2024-01-10T23:22:59.028Z,17.65
2024-01-10T23:25:26.534Z,18.42
2024-01-10T23:27:53.592Z,17.60
2024-01-10T23:30:20.686Z,17.92
2024-01-10T23:32:47.995Z,16.88
2024-01-10T23:35:16.044Z,18.73
2024-01-10T23:37:43.222Z,18.20
2024-01-10T23:40:10.764Z,17.02
2024-01-10T23:42:37.860Z,17.63
2024-01-10T23:45:05.557Z,19.02
2024-01-10T23:47:32.713Z,18.02
2024-01-10T23:49:59.885Z,18.75
2024-01-10T23:52:27.264Z,16.50
2024-01-10T23:54:54.378Z,18.67
2024-01-10T23:57:21.946Z,19.67
2024-01-10T23:59:49.022Z,19.30
